createdAt,value
2023-04-29T00:01:05.330Z,9.23
2023-04-29T00:03:35.312Z,8.00
2023-04-29T00:06:02.786Z,7.65
2023-04-29T00:08:29.531Z,9.10
2023-04-29T00:10:56.189Z,8.18
2023-04-29T00:13:22.832Z,8.82
2023-04-29T00:15:49.450Z,7.68
2023-04-29T00:18:16.122Z,8.30
2023-04-29T00:20:43.506Z,9.10
2023-04-29T00:23:10.267Z,9.27
2023-04-29T00:25:38.442Z,10.10
2023-04-29T00:28:06.188Z,8.75
2023-04-29T00:30:34.654Z,10.52
2023-04-29T00:33:01.878Z,9.95
2023-04-29T00:35:28.860Z,9.10
2023-04-29T00:37:55.397Z,9.05
2023-04-29T00:40:22.079Z,8.20
2023-04-29T00:42:48.630Z,7.22
2023-04-29T00:45:15.161Z,6.55
2023-04-29T00:47:42.215Z,7.03
2023-04-29T00:50:10.252Z,7.88
2023-04-29T00:52:38.227Z,8.10
2023-04-29T00:55:09.321Z,7.20
2023-04-29T00:57:35.960Z,7.65
2023-04-29T01:00:03.348Z,9.27
2023-04-29T01:02:30.196Z,7.95
2023-04-29T01:04:57.186Z,8.52
2023-04-29T01:07:42.602Z,9.32
2023-04-29T01:10:22.697Z,8.57
2023-04-29T01:13:09.671Z,7.72
2023-04-29T01:16:01.709Z,6.03
2023-04-29T01:18:41.436Z,7.80
2023-04-29T01:21:08.115Z,7.80
2023-04-29T01:23:34.629Z,6.70
2023-04-29T01:26:01.203Z,7.18
2023-04-29T01:28:43.423Z,7.38
2023-04-29T01:31:19.560Z,7.57
2023-04-29T01:34:14.332Z,8.25
2023-04-29T01:37:00.862Z,7.50
2023-04-29T01:39:37.340Z,8.10
2023-04-29T01:42:28.898Z,7.30
2023-04-29T01:44:57.168Z,6.32
2023-04-29T01:47:24.786Z,6.90
2023-04-29T01:49:51.956Z,8.77
2023-04-29T01:52:18.705Z,6.55
2023-04-29T01:54:46.152Z,7.65
2023-04-29T01:57:13.014Z,7.68
2023-04-29T01:59:39.768Z,7.50
2023-04-29T02:02:06.231Z,7.00
2023-04-29T02:04:34.569Z,7.40
2023-04-29T02:07:01.665Z,7.10
2023-04-29T02:09:28.158Z,6.97
2023-04-29T02:11:55.062Z,7.13
2023-04-29T02:14:21.830Z,6.63
2023-04-29T02:16:48.407Z,7.22
2023-04-29T02:19:15.054Z,7.22
2023-04-29T02:21:41.643Z,6.80
2023-04-29T02:24:08.172Z,7.78
2023-04-29T02:26:35.588Z,8.10
2023-04-29T02:29:02.636Z,7.85
2023-04-29T02:31:29.311Z,7.70
2023-04-29T02:33:56.161Z,8.90
2023-04-29T02:36:22.636Z,8.02
2023-04-29T02:38:50.828Z,7.65
2023-04-29T02:41:21.520Z,6.80
2023-04-29T02:43:49.147Z,7.97
2023-04-29T02:46:16.806Z,7.13
2023-04-29T02:48:43.377Z,7.47
2023-04-29T02:51:09.942Z,7.30
2023-04-29T02:53:36.777Z,6.68
2023-04-29T02:56:03.450Z,5.75
2023-04-29T02:58:29.931Z,5.82
2023-04-29T03:00:56.650Z,7.40
2023-04-29T03:03:23.767Z,6.68
2023-04-29T03:05:50.766Z,6.72
2023-04-29T03:08:17.295Z,5.95
2023-04-29T03:10:43.830Z,6.32
2023-04-29T03:13:10.362Z,6.30
2023-04-29T03:15:37.101Z,6.25
2023-04-29T03:18:04.973Z,8.45
2023-04-29T03:20:32.732Z,6.70
2023-04-29T03:23:00.970Z,7.20
2023-04-29T03:25:28.283Z,6.20
2023-04-29T03:27:54.785Z,6.13
2023-04-29T03:30:21.393Z,6.38
2023-04-29T03:32:47.910Z,6.72
2023-04-29T03:35:15.956Z,7.20
2023-04-29T03:37:44.563Z,5.97
2023-04-29T03:40:12.073Z,7.18
2023-04-29T03:42:38.605Z,6.78
2023-04-29T03:45:06.148Z,7.10
2023-04-29T03:47:32.686Z,7.05
2023-04-29T03:49:59.198Z,6.95
2023-04-29T03:52:27.275Z,8.38
2023-04-29T03:54:53.843Z,6.93
2023-04-29T03:57:20.764Z,6.10
2023-04-29T03:59:50.519Z,7.07
2023-04-29T04:02:17.720Z,6.68
2023-04-29T04:04:44.560Z,6.30
2023-04-29T04:07:11.750Z,7.82
2023-04-29T04:09:38.600Z,7.13
2023-04-29T04:12:06.332Z,5.78
2023-04-29T04:14:32.891Z,7.18
2023-04-29T04:16:59.486Z,7.40
2023-04-29T04:19:27.157Z,6.50
2023-04-29T04:21:53.796Z,5.38
2023-04-29T04:24:20.415Z,4.57
2023-04-29T04:26:47.008Z,2.88
2023-04-29T04:29:13.431Z,4.18
2023-04-29T04:31:40.533Z,4.78
2023-04-29T04:34:07.073Z,4.13
2023-04-29T04:36:33.659Z,5.57
2023-04-29T04:39:00.274Z,4.28
2023-04-29T04:41:26.803Z,5.00
2023-04-29T04:43:53.342Z,5.43
2023-04-29T04:46:20.142Z,6.13
2023-04-29T04:48:46.667Z,7.03
2023-04-29T04:51:14.166Z,7.68
2023-04-29T04:53:41.274Z,7.35
2023-04-29T04:56:08.490Z,7.53
2023-04-29T04:58:35.192Z,6.70
2023-04-29T05:01:01.898Z,7.63
2023-04-29T05:03:28.930Z,6.28
2023-04-29T05:06:00.322Z,7.28
2023-04-29T05:08:28.895Z,6.65
2023-04-29T05:10:58.497Z,5.55
2023-04-29T05:13:28.116Z,7.18
2023-04-29T05:15:54.722Z,6.60
2023-04-29T05:18:21.212Z,6.43
2023-04-29T05:20:47.707Z,7.32
2023-04-29T05:23:15.019Z,6.35
2023-04-29T05:25:41.541Z,8.35
2023-04-29T05:28:07.999Z,7.05
2023-04-29T05:30:35.732Z,7.50
2023-04-29T05:33:02.310Z,6.75
2023-04-29T05:35:28.907Z,7.57
2023-04-29T05:37:55.594Z,7.55
2023-04-29T05:40:23.438Z,7.72
2023-04-29T05:42:50.160Z,7.45
2023-04-29T05:45:16.756Z,7.63
2023-04-29T05:47:43.315Z,7.05
2023-04-29T05:50:11.593Z,7.65
2023-04-29T05:52:38.705Z,7.47
2023-04-29T05:55:05.726Z,7.05
2023-04-29T05:57:32.415Z,8.00
2023-04-29T06:00:00.104Z,8.63
2023-04-29T06:02:27.514Z,8.13
2023-04-29T06:04:54.244Z,8.13
2023-04-29T06:07:21.314Z,8.60
2023-04-29T06:09:47.822Z,10.07
2023-04-29T06:12:14.325Z,7.70
2023-04-29T06:14:40.858Z,8.30
2023-04-29T06:17:07.391Z,7.82
2023-04-29T06:19:34.138Z,8.82
2023-04-29T06:22:00.908Z,8.98
2023-04-29T06:24:27.365Z,9.10
2023-04-29T06:26:53.927Z,9.00
2023-04-29T06:29:20.461Z,10.07
2023-04-29T06:31:47.022Z,8.20
2023-04-29T06:34:14.620Z,9.20
2023-04-29T06:36:41.638Z,8.65
2023-04-29T06:39:08.149Z,9.70
2023-04-29T06:41:34.951Z,9.10
2023-04-29T06:44:01.469Z,8.25
2023-04-29T06:46:29.288Z,9.10
2023-04-29T06:48:55.911Z,9.15
2023-04-29T06:51:22.412Z,8.75
2023-04-29T06:53:49.010Z,8.50
2023-04-29T06:56:16.970Z,8.35
2023-04-29T06:58:44.528Z,7.85
2023-04-29T07:01:11.104Z,8.70
2023-04-29T07:03:38.090Z,8.38
2023-04-29T07:06:05.205Z,8.77
2023-04-29T07:08:32.265Z,8.98
2023-04-29T07:10:59.732Z,9.77
2023-04-29T07:13:26.330Z,9.10
2023-04-29T07:15:53.035Z,9.45
2023-04-29T07:18:20.352Z,9.32
2023-04-29T07:20:48.043Z,8.88
2023-04-29T07:23:15.245Z,7.95
2023-04-29T07:25:41.808Z,9.20
2023-04-29T07:28:11.104Z,8.93
2023-04-29T07:30:37.652Z,9.45
2023-04-29T07:33:04.631Z,8.57
2023-04-29T07:35:31.772Z,11.57
2023-04-29T07:37:58.397Z,8.30
2023-04-29T07:40:24.945Z,8.05
2023-04-29T07:42:51.608Z,8.93
2023-04-29T07:45:18.275Z,8.93
2023-04-29T07:47:45.709Z,9.55
2023-04-29T07:50:12.554Z,10.75
2023-04-29T07:52:38.998Z,8.30
2023-04-29T07:55:05.959Z,9.75
2023-04-29T07:57:32.465Z,9.65
2023-04-29T07:59:59.002Z,8.60
2023-04-29T08:02:25.674Z,8.50
2023-04-29T08:04:54.655Z,7.93
2023-04-29T08:07:21.586Z,8.50
2023-04-29T08:09:48.135Z,7.72
2023-04-29T08:12:14.568Z,8.52
2023-04-29T08:14:41.303Z,8.68
2023-04-29T08:17:08.667Z,8.57
2023-04-29T08:19:35.222Z,8.82
2023-04-29T08:22:02.087Z,7.82
2023-04-29T08:24:29.725Z,8.35
2023-04-29T08:26:56.178Z,10.65
2023-04-29T08:29:23.156Z,8.73
2023-04-29T08:31:50.318Z,8.10
2023-04-29T08:34:16.838Z,12.43
2023-04-29T08:36:43.341Z,9.95
2023-04-29T08:39:09.914Z,9.35
2023-04-29T08:41:37.059Z,8.63
2023-04-29T08:44:03.551Z,9.80
2023-04-29T08:46:32.667Z,7.65
2023-04-29T08:49:02.927Z,8.07
2023-04-29T08:51:30.216Z,8.07
2023-04-29T08:53:57.199Z,6.93
2023-04-29T08:56:25.677Z,7.70
2023-04-29T08:58:58.894Z,10.35
2023-04-29T09:01:28.829Z,8.63
2023-04-29T09:04:26.879Z,7.70
2023-04-29T09:06:56.938Z,7.88
2023-04-29T09:09:25.074Z,7.95
2023-04-29T09:11:51.666Z,7.32
2023-04-29T09:14:19.375Z,7.82
2023-04-29T09:16:49.052Z,8.10
2023-04-29T09:19:33.494Z,7.40
2023-04-29T09:22:01.887Z,7.32
2023-04-29T09:24:29.725Z,6.35
2023-04-29T09:26:56.754Z,7.65
2023-04-29T09:29:24.091Z,7.20
2023-04-29T09:31:53.538Z,6.10
2023-04-29T09:34:39.592Z,6.93
2023-04-29T09:37:24.341Z,5.22
2023-04-29T09:39:51.016Z,6.13
2023-04-29T09:42:17.693Z,5.93
2023-04-29T09:44:45.277Z,6.22
2023-04-29T09:47:13.258Z,7.50
2023-04-29T09:49:45.455Z,5.57
2023-04-29T09:52:14.333Z,6.22
2023-04-29T09:54:43.185Z,6.50
2023-04-29T09:57:11.578Z,7.40
2023-04-29T09:59:41.037Z,6.45
2023-04-29T10:02:18.841Z,4.50
2023-04-29T10:04:47.628Z,6.43
2023-04-29T10:07:16.801Z,5.78
2023-04-29T10:09:46.198Z,8.57
2023-04-29T10:12:18.965Z,19.70
2023-04-29T10:15:06.913Z,12.63
2023-04-29T10:17:47.749Z,7.72
2023-04-29T10:20:16.476Z,7.45
2023-04-29T10:22:47.928Z,4.53
2023-04-29T10:25:20.609Z,5.57
2023-04-29T10:27:48.936Z,5.70
2023-04-29T10:30:18.345Z,5.32
2023-04-29T10:35:19.147Z,4.88
2023-04-29T10:37:47.751Z,6.50
2023-04-29T10:40:16.726Z,6.22
2023-04-29T10:42:47.362Z,5.95
2023-04-29T10:45:20.460Z,5.30
2023-04-29T10:48:02.761Z,5.18
2023-04-29T10:50:30.414Z,6.35
2023-04-29T10:52:57.993Z,4.80
2023-04-29T10:55:24.929Z,5.53
2023-04-29T10:57:57.031Z,4.15
2023-04-29T11:00:28.166Z,6.00
2023-04-29T11:02:59.645Z,8.57
2023-04-29T11:08:24.484Z,6.35
2023-04-29T11:10:54.429Z,6.22
2023-04-29T11:13:37.836Z,6.03
2023-04-29T11:16:09.295Z,5.32
2023-04-29T11:21:06.212Z,10.27
2023-04-29T11:23:36.934Z,6.72
2023-04-29T11:26:04.111Z,6.75
2023-04-29T11:28:32.568Z,8.07
2023-04-29T11:31:00.006Z,6.43
2023-04-29T11:33:28.007Z,6.65
2023-04-29T11:35:55.301Z,5.88
2023-04-29T11:38:26.347Z,6.00
2023-04-29T11:40:52.844Z,5.75
2023-04-29T11:43:20.310Z,5.65
2023-04-29T11:45:47.837Z,4.03
2023-04-29T11:48:21.925Z,6.90
2023-04-29T11:50:59.525Z,3.95
2023-04-29T11:53:28.066Z,5.03
2023-04-29T11:55:55.820Z,5.88
2023-04-29T11:58:23.457Z,4.50
2023-04-29T12:00:51.029Z,5.45
2023-04-29T12:03:21.879Z,5.43
2023-04-29T12:05:56.303Z,5.10
2023-04-29T12:08:27.435Z,5.35
2023-04-29T12:10:58.888Z,5.00
2023-04-29T12:15:53.956Z,4.28
2023-04-29T12:18:23.450Z,4.25
2023-04-29T12:20:51.585Z,3.45
2023-04-29T12:23:20.083Z,4.43
2023-04-29T12:25:50.693Z,4.90
2023-04-29T12:28:17.920Z,5.33
2023-04-29T12:30:46.006Z,4.07
2023-04-29T12:33:19.810Z,5.60
2023-04-29T12:35:46.353Z,4.43
2023-04-29T12:38:16.699Z,3.20
2023-04-29T12:40:44.749Z,4.50
2023-04-29T12:43:11.973Z,5.88
2023-04-29T12:45:39.215Z,4.43
2023-04-29T12:48:10.050Z,4.50
2023-04-29T12:50:49.594Z,5.32
2023-04-29T12:53:16.365Z,4.95
2023-04-29T12:55:42.882Z,7.15
2023-04-29T12:58:09.757Z,4.93
2023-04-29T13:00:38.004Z,5.70
2023-04-29T13:03:05.029Z,6.10
2023-04-29T13:05:31.716Z,5.95
2023-04-29T13:07:58.469Z,6.22
2023-04-29T13:10:25.190Z,6.88
2023-04-29T13:12:52.139Z,7.05
2023-04-29T13:15:18.734Z,5.80
2023-04-29T13:17:45.976Z,4.25
2023-04-29T13:20:13.198Z,6.57
2023-04-29T13:22:39.659Z,5.22
2023-04-29T13:25:06.434Z,5.97
2023-04-29T13:27:32.954Z,8.25
2023-04-29T13:29:59.521Z,5.70
2023-04-29T13:32:26.134Z,8.18
2023-04-29T13:34:53.335Z,6.53
2023-04-29T13:37:20.391Z,5.97
2023-04-29T13:39:48.082Z,5.70
2023-04-29T13:42:15.764Z,6.22
2023-04-29T13:44:51.746Z,5.85
2023-04-29T13:47:25.068Z,5.53
2023-04-29T13:59:55.096Z,5.10
2023-04-29T14:02:25.595Z,6.95
2023-04-29T14:04:53.443Z,6.38
2023-04-29T14:07:21.211Z,6.70
2023-04-29T14:09:49.412Z,6.90
2023-04-29T14:12:15.955Z,5.75
2023-04-29T14:14:42.481Z,5.68
2023-04-29T14:17:10.319Z,6.05
2023-04-29T14:19:36.791Z,6.60
2023-04-29T14:22:03.420Z,5.78
2023-04-29T14:24:29.935Z,5.47
2023-04-29T14:26:57.977Z,4.60
2023-04-29T14:29:24.685Z,4.20
2023-04-29T14:31:51.279Z,4.63
2023-04-29T14:34:19.471Z,3.63
2023-04-29T14:36:48.866Z,3.95
2023-04-29T14:39:15.423Z,4.85
2023-04-29T14:41:41.858Z,3.78
2023-04-29T14:44:08.363Z,3.65
2023-04-29T14:46:34.892Z,3.90
2023-04-29T14:49:01.917Z,4.82
2023-04-29T14:51:28.555Z,5.82
2023-04-29T14:53:55.041Z,4.95
2023-04-29T14:56:21.989Z,5.30
2023-04-29T14:58:48.583Z,5.47
2023-04-29T15:01:15.121Z,6.05
2023-04-29T15:03:44.076Z,5.40
2023-04-29T15:06:11.552Z,5.15
2023-04-29T15:08:38.585Z,6.07
2023-04-29T15:11:05.515Z,5.75
2023-04-29T15:13:32.293Z,4.18
2023-04-29T15:15:59.105Z,4.97
2023-04-29T15:18:26.465Z,6.45
2023-04-29T15:20:53.849Z,5.00
2023-04-29T15:23:20.491Z,5.68
2023-04-29T15:25:47.160Z,6.47
2023-04-29T15:28:13.685Z,4.90
2023-04-29T15:30:40.538Z,7.07
2023-04-29T15:33:07.136Z,4.85
2023-04-29T15:35:34.832Z,5.28
2023-04-29T15:38:01.422Z,5.32
2023-04-29T15:40:29.532Z,5.18
2023-04-29T15:42:56.064Z,5.60
2023-04-29T15:45:22.529Z,4.05
2023-04-29T15:47:49.109Z,4.57
2023-04-29T15:50:15.683Z,3.72
2023-04-29T15:52:42.239Z,3.95
2023-04-29T15:55:08.892Z,2.65
2023-04-29T15:57:41.279Z,3.65
2023-04-29T16:00:09.004Z,2.70
2023-04-29T16:02:35.873Z,1.67
2023-04-29T16:05:03.088Z,2.97
2023-04-29T16:07:29.666Z,2.55
2023-04-29T16:09:56.258Z,1.90
2023-04-29T16:12:23.865Z,2.42
2023-04-29T16:14:50.334Z,3.00
2023-04-29T16:17:16.807Z,2.75
2023-04-29T16:19:43.301Z,1.50
2023-04-29T16:22:09.766Z,1.85
2023-04-29T16:24:36.294Z,1.95
2023-04-29T16:27:02.904Z,2.88
2023-04-29T16:29:29.416Z,2.15
2023-04-29T16:31:55.849Z,1.65
2023-04-29T16:34:22.373Z,1.80
2023-04-29T16:36:48.807Z,1.85
2023-04-29T16:39:15.451Z,2.33
2023-04-29T16:41:41.932Z,2.17
2023-04-29T16:44:09.065Z,2.00
2023-04-29T16:46:36.020Z,2.85
2023-04-29T16:49:03.025Z,3.05
2023-04-29T16:51:29.688Z,1.52
2023-04-29T16:53:56.235Z,2.55
2023-04-29T16:56:23.191Z,4.13
2023-04-29T16:58:50.199Z,2.85
2023-04-29T17:01:19.648Z,2.60
2023-04-29T17:03:47.711Z,3.50
2023-04-29T17:06:15.794Z,2.53
2023-04-29T17:08:43.115Z,11.88
2023-04-29T17:11:10.483Z,2.05
2023-04-29T17:13:37.112Z,4.38
2023-04-29T17:16:03.951Z,3.80
2023-04-29T17:18:32.527Z,1.75
2023-04-29T17:20:59.648Z,1.45
2023-04-29T17:23:26.189Z,3.00
2023-04-29T17:25:55.465Z,1.63
2023-04-29T17:28:22.318Z,2.40
2023-04-29T17:30:49.741Z,3.85
2023-04-29T17:33:17.685Z,3.17
2023-04-29T17:35:46.318Z,2.90
2023-04-29T17:38:13.276Z,2.20
2023-04-29T17:40:39.946Z,2.72
2023-04-29T17:43:06.499Z,3.25
2023-04-29T17:45:33.022Z,2.08
2023-04-29T17:47:59.856Z,3.78
2023-04-29T17:50:26.452Z,2.78
2023-04-29T17:52:53.902Z,2.97
2023-04-29T17:55:20.691Z,1.90
2023-04-29T17:57:47.196Z,1.65
2023-04-29T18:00:14.209Z,2.20
2023-04-29T18:02:41.301Z,3.20
2023-04-29T18:05:08.045Z,4.72
2023-04-29T18:07:34.720Z,2.97
2023-04-29T18:10:01.220Z,3.67
2023-04-29T18:12:28.082Z,4.55
2023-04-29T18:14:54.648Z,5.38
2023-04-29T18:17:21.345Z,7.30
2023-04-29T18:19:49.555Z,6.32
2023-04-29T18:22:16.678Z,5.60
2023-04-29T18:24:43.689Z,5.95
2023-04-29T18:27:10.613Z,8.18
2023-04-29T18:29:37.215Z,9.07
2023-04-29T18:32:05.699Z,9.02
2023-04-29T18:34:36.043Z,8.27
2023-04-29T18:37:02.655Z,9.30
2023-04-29T18:39:30.197Z,9.80
2023-04-29T18:41:58.115Z,9.13
2023-04-29T18:44:26.248Z,8.88
2023-04-29T18:46:54.040Z,8.55
2023-04-29T18:49:20.704Z,8.48
2023-04-29T18:51:47.604Z,8.77
2023-04-29T18:54:16.497Z,9.15
2023-04-29T18:56:46.569Z,9.40
2023-04-29T18:59:15.893Z,8.98
2023-04-29T19:01:43.368Z,8.80
2023-04-29T19:04:10.393Z,8.70
2023-04-29T19:06:37.122Z,9.88
2023-04-29T19:09:04.022Z,9.52
2023-04-29T19:11:30.574Z,9.40
2023-04-29T19:13:57.651Z,9.50
2023-04-29T19:16:25.115Z,9.35
2023-04-29T19:18:52.660Z,9.00
2023-04-29T19:21:20.179Z,8.80
2023-04-29T19:23:46.840Z,7.95
2023-04-29T19:26:13.416Z,8.95
2023-04-29T19:28:39.950Z,8.90
2023-04-29T19:31:06.471Z,9.23
2023-04-29T19:33:33.045Z,11.02
2023-04-29T19:35:59.513Z,11.00
2023-04-29T19:38:26.086Z,8.20
2023-04-29T19:40:56.614Z,9.25
2023-04-29T19:43:23.313Z,8.55
2023-04-29T19:45:49.922Z,7.45
2023-04-29T19:48:17.578Z,8.35
2023-04-29T19:50:44.134Z,7.88
2023-04-29T19:53:11.513Z,9.68
2023-04-29T19:55:39.881Z,7.93
2023-04-29T19:58:06.895Z,9.77
2023-04-29T20:00:34.020Z,8.98
2023-04-29T20:03:00.625Z,8.60
2023-04-29T20:05:28.375Z,9.07
2023-04-29T20:07:55.519Z,8.25
2023-04-29T20:10:22.175Z,9.23
2023-04-29T20:12:48.632Z,9.18
2023-04-29T20:15:15.155Z,8.93
2023-04-29T20:17:41.722Z,8.60
2023-04-29T20:20:09.152Z,9.63
2023-04-29T20:22:35.825Z,8.57
2023-04-29T20:25:03.020Z,8.85
2023-04-29T20:27:29.575Z,8.30
2023-04-29T20:29:57.117Z,8.45
2023-04-29T20:32:24.022Z,8.30
2023-04-29T20:34:50.765Z,8.05
2023-04-29T20:37:17.555Z,8.23
2023-04-29T20:39:44.039Z,8.00
2023-04-29T20:42:10.566Z,8.40
2023-04-29T20:44:38.143Z,7.68
2023-04-29T20:47:05.514Z,8.60
2023-04-29T20:49:32.250Z,8.65
2023-04-29T20:51:59.622Z,8.00
2023-04-29T20:54:26.173Z,7.65
2023-04-29T20:56:52.667Z,8.77
2023-04-29T20:59:19.104Z,8.48
2023-04-29T21:01:46.407Z,9.05
2023-04-29T21:04:12.940Z,8.20
2023-04-29T21:06:40.280Z,8.55
2023-04-29T21:09:06.959Z,8.88
2023-04-29T21:11:33.457Z,9.05
2023-04-29T21:13:59.931Z,9.48
2023-04-29T21:16:26.600Z,9.00
2023-04-29T21:18:53.130Z,8.52
2023-04-29T21:21:19.655Z,7.90
2023-04-29T21:23:46.191Z,8.50
2023-04-29T21:26:14.967Z,8.75
2023-04-29T21:28:41.793Z,9.45
2023-04-29T21:31:15.260Z,9.05
2023-04-29T21:33:43.487Z,8.75
2023-04-29T21:36:10.138Z,7.88
2023-04-29T21:38:36.757Z,8.30
2023-04-29T21:41:05.755Z,8.20
2023-04-29T21:43:33.353Z,8.40
2023-04-29T21:46:00.516Z,8.27
2023-04-29T21:48:27.516Z,8.48
2023-04-29T21:50:54.047Z,9.30
2023-04-29T21:53:20.870Z,9.07
2023-04-29T21:55:47.929Z,9.20
2023-04-29T21:58:16.071Z,8.77
2023-04-29T22:00:51.222Z,8.73
2023-04-29T22:03:18.022Z,8.73
2023-04-29T22:05:44.630Z,9.00
2023-04-29T22:08:11.423Z,8.50
2023-04-29T22:10:40.138Z,9.02
2023-04-29T22:13:07.049Z,9.50
2023-04-29T22:15:33.859Z,10.18
2023-04-29T22:18:00.565Z,9.30
2023-04-29T22:20:27.729Z,7.97
2023-04-29T22:22:54.562Z,9.25
2023-04-29T22:25:21.879Z,7.88
2023-04-29T22:27:49.158Z,7.60
2023-04-29T22:30:17.643Z,9.18
2023-04-29T22:32:44.489Z,9.38
2023-04-29T22:35:11.299Z,9.27
2023-04-29T22:37:38.143Z,11.57
2023-04-29T22:40:05.213Z,8.57
2023-04-29T22:42:31.926Z,8.52
2023-04-29T22:44:59.436Z,7.80
2023-04-29T22:47:26.383Z,9.45
2023-04-29T22:49:53.045Z,9.10
2023-04-29T22:52:19.663Z,9.55
2023-04-29T22:54:46.238Z,9.23
2023-04-29T22:57:12.734Z,8.68
2023-04-29T22:59:39.213Z,8.25
2023-04-29T23:02:05.879Z,8.25
2023-04-29T23:04:33.384Z,9.98
2023-04-29T23:07:00.006Z,9.82
2023-04-29T23:09:26.714Z,8.45
2023-04-29T23:11:53.326Z,8.60
2023-04-29T23:14:22.730Z,8.32
2023-04-29T23:16:49.395Z,8.93
2023-04-29T23:19:16.354Z,8.73
2023-04-29T23:21:43.402Z,10.63
2023-04-29T23:24:09.856Z,8.30
2023-04-29T23:26:36.373Z,9.60
2023-04-29T23:29:02.856Z,8.02
2023-04-29T23:31:29.350Z,9.20
2023-04-29T23:33:55.975Z,7.80
2023-04-29T23:36:22.501Z,8.10
2023-04-29T23:38:49.008Z,8.32
2023-04-29T23:41:15.763Z,7.63
2023-04-29T23:43:42.351Z,9.63
2023-04-29T23:46:09.058Z,10.07
2023-04-29T23:48:36.183Z,7.82
2023-04-29T23:51:02.727Z,7.13
2023-04-29T23:53:29.300Z,7.50
2023-04-29T23:55:55.851Z,7.15
2023-04-29T23:58:28.466Z,9.65
